Ana Sayfa
METAR-TAF:

METAR-TAF

Havaalanları :

Clines Corners, New Mexico, Amerika Birleşik Devletleri

Enlem: 35-00N, Boylam: 105-40W, yükseklik: 2160 m

Güncel hava durumu gözlemi

Rapor saat 06:53 UTC de 44 dakika önce yapıldı.
Rüzgar batı/güneybatıdan 11 kt
Sıcaklık 3°C
Nem 35%
Basınç 1018 hPa
Görüş mesafesi: 16.1 km
Açık gökyüzü

METAR: KCQC 300653Z AUTO 25011KT 10SM CLR 03/M11 A3006 RMK AO2 SLP140 T00331106 401391033

Saat: 01:37 (07:37 UTC)


TAF: eksik

4.000'den fazla havaalanı için hava durumu gözlemleri ve tahminleri (METAR ve TAF raporları).

Kullanılabilir istasyonlar harita üzerinde sarı ve kırmızı noktalarla gösterilir.

İstasyonun adını görmek için fareyi noktanın üzerinde gezdirin.

Sonrasında hava gözlem ve tahminlerini görmek için tıklayın.

Haritayı değiştirmek için: yaklaştırmak için siyah artı işaretli yeşil düğmeye ve uzaklaştırmak için de eksi işaretli düğmeye hızla tıklayın; bitişik haritalar için yeşil okları kullanın.


METAR-TAF: